createdAt,value
2023-09-04T00:00:55.104Z,2.40
2023-09-04T00:03:36.953Z,2.30
2023-09-04T00:06:04.031Z,1.85
2023-09-04T00:08:31.274Z,1.95
2023-09-04T00:10:58.196Z,2.20
2023-09-04T00:13:25.459Z,2.00
2023-09-04T00:15:56.596Z,2.13
2023-09-04T00:18:24.972Z,1.90
2023-09-04T00:20:55.333Z,2.33
2023-09-04T00:23:22.622Z,2.20
2023-09-04T00:25:49.582Z,1.80
2023-09-04T00:28:19.773Z,2.30
2023-09-04T00:30:47.228Z,1.90
2023-09-04T00:33:14.516Z,2.10
2023-09-04T00:35:41.450Z,1.80
2023-09-04T00:38:08.885Z,2.47
2023-09-04T00:40:35.898Z,2.30
2023-09-04T00:43:03.606Z,2.38
2023-09-04T00:45:31.115Z,2.40
2023-09-04T00:47:59.366Z,1.80
2023-09-04T00:50:26.377Z,1.80
2023-09-04T00:52:59.300Z,1.88
2023-09-04T00:55:27.101Z,1.88
2023-09-04T00:57:54.558Z,1.70
2023-09-04T01:00:23.796Z,2.33
2023-09-04T01:02:51.904Z,2.42
2023-09-04T01:05:19.041Z,2.40
2023-09-04T01:07:48.284Z,2.03
2023-09-04T01:10:16.190Z,2.63
2023-09-04T01:12:46.417Z,2.27
2023-09-04T01:15:14.668Z,2.50
2023-09-04T01:17:44.699Z,2.40
2023-09-04T01:20:28.542Z,2.25
2023-09-04T01:22:59.288Z,2.63
2023-09-04T01:25:45.918Z,2.70
2023-09-04T01:28:26.833Z,2.10
2023-09-04T01:31:01.990Z,3.15
2023-09-04T01:33:32.839Z,2.80
2023-09-04T01:36:02.916Z,2.75
2023-09-04T01:38:30.759Z,2.23
2023-09-04T01:40:57.681Z,2.72
2023-09-04T01:43:24.977Z,3.00
2023-09-04T01:45:52.015Z,2.60
2023-09-04T01:48:19.251Z,2.60
2023-09-04T01:50:46.157Z,2.50
2023-09-04T01:53:13.946Z,2.80
2023-09-04T01:55:40.918Z,2.40
2023-09-04T01:58:08.186Z,2.75
2023-09-04T02:00:35.143Z,2.70
2023-09-04T02:03:02.557Z,2.37
2023-09-04T02:05:29.796Z,2.50
2023-09-04T02:07:58.097Z,2.47
2023-09-04T02:10:28.194Z,2.80
2023-09-04T02:12:56.973Z,2.80
2023-09-04T02:15:23.991Z,2.90
2023-09-04T02:17:53.097Z,2.80
2023-09-04T02:20:20.681Z,2.65
2023-09-04T02:22:48.322Z,2.67
2023-09-04T02:25:15.389Z,2.58
2023-09-04T02:27:42.675Z,2.80
2023-09-04T02:30:10.106Z,2.58
2023-09-04T02:32:37.555Z,2.90
2023-09-04T02:35:04.887Z,2.90
2023-09-04T02:37:32.194Z,2.72
2023-09-04T02:39:59.159Z,2.83
2023-09-04T02:42:30.266Z,2.55
2023-09-04T02:44:57.218Z,2.40
2023-09-04T02:47:24.527Z,2.85
2023-09-04T02:49:52.082Z,2.47
2023-09-04T02:52:19.595Z,3.40
2023-09-04T02:54:46.669Z,3.08
2023-09-04T02:57:13.936Z,2.75
2023-09-04T02:59:40.983Z,3.35
2023-09-04T03:02:08.334Z,3.28
2023-09-04T03:04:35.309Z,2.50
2023-09-04T03:07:02.564Z,2.78
2023-09-04T03:09:30.171Z,2.70
2023-09-04T03:11:57.525Z,2.60
2023-09-04T03:14:24.497Z,2.60
2023-09-04T03:16:51.837Z,3.37
2023-09-04T03:19:18.836Z,3.15
2023-09-04T03:21:46.287Z,3.10
2023-09-04T03:24:13.233Z,2.70
2023-09-04T03:26:40.606Z,2.97
2023-09-04T03:29:08.501Z,3.13
2023-09-04T03:31:40.025Z,3.10
2023-09-04T03:34:08.052Z,3.15
2023-09-04T03:36:35.314Z,3.03
2023-09-04T03:39:04.308Z,3.10
2023-09-04T03:41:32.539Z,3.23
2023-09-04T03:43:59.474Z,2.90
2023-09-04T03:46:28.249Z,2.70
2023-09-04T03:48:55.207Z,3.00
2023-09-04T03:51:22.489Z,3.15
2023-09-04T03:53:49.715Z,3.17
2023-09-04T03:56:16.993Z,3.15
2023-09-04T03:58:44.054Z,3.40
2023-09-04T04:01:12.939Z,3.10
2023-09-04T04:03:40.129Z,2.88
2023-09-04T04:06:14.665Z,2.97
2023-09-04T04:08:41.859Z,3.20
2023-09-04T04:11:09.164Z,3.60
2023-09-04T04:13:36.221Z,3.15
2023-09-04T04:16:04.398Z,3.40
2023-09-04T04:18:31.976Z,3.43
2023-09-04T04:20:59.311Z,3.20
2023-09-04T04:23:26.286Z,3.70
2023-09-04T04:25:53.732Z,3.30
2023-09-04T04:28:22.974Z,3.13
2023-09-04T04:30:50.596Z,3.20
2023-09-04T04:33:17.935Z,3.78
2023-09-04T04:35:45.386Z,3.55
2023-09-04T04:38:12.415Z,3.63
2023-09-04T04:40:40.071Z,3.53
2023-09-04T04:43:07.385Z,3.70
2023-09-04T04:45:34.850Z,3.65
2023-09-04T04:48:04.606Z,3.80
2023-09-04T04:50:32.297Z,3.92
2023-09-04T04:52:59.285Z,3.85
2023-09-04T04:55:26.614Z,4.13
2023-09-04T04:57:54.518Z,4.20
2023-09-04T05:00:22.443Z,3.83
2023-09-04T05:02:49.956Z,4.25
2023-09-04T05:05:17.986Z,3.70
2023-09-04T05:07:45.046Z,3.50
2023-09-04T05:10:14.534Z,4.32
2023-09-04T05:12:42.778Z,3.90
2023-09-04T05:15:10.545Z,4.20
2023-09-04T05:17:37.562Z,4.28
2023-09-04T05:20:06.566Z,4.40
2023-09-04T05:22:34.328Z,3.65
2023-09-04T05:25:01.917Z,3.45
2023-09-04T05:27:29.034Z,3.67
2023-09-04T05:29:56.748Z,3.60
2023-09-04T05:32:23.782Z,4.20
2023-09-04T05:34:54.696Z,3.53
2023-09-04T05:37:22.470Z,3.92
2023-09-04T05:39:50.097Z,3.50
2023-09-04T05:42:17.174Z,3.88
2023-09-04T05:44:44.501Z,3.20
2023-09-04T05:47:11.452Z,4.43
2023-09-04T05:49:38.848Z,3.90
2023-09-04T05:52:06.277Z,4.00
2023-09-04T05:54:33.755Z,3.90
2023-09-04T05:57:00.800Z,3.90
2023-09-04T05:59:28.164Z,3.70
2023-09-04T06:01:55.079Z,3.33
2023-09-04T06:04:24.821Z,3.72
2023-09-04T06:06:52.689Z,3.40
2023-09-04T06:09:20.420Z,3.57
2023-09-04T06:11:47.437Z,3.25
2023-09-04T06:14:14.867Z,3.15
2023-09-04T06:16:41.831Z,3.08
2023-09-04T06:19:09.121Z,3.10
2023-09-04T06:21:36.082Z,3.40
2023-09-04T06:24:04.493Z,3.25
2023-09-04T06:26:31.422Z,3.08
2023-09-04T06:28:59.234Z,3.05
2023-09-04T06:31:26.435Z,2.80
2023-09-04T06:33:53.757Z,3.00
2023-09-04T06:36:20.691Z,2.92
2023-09-04T06:38:48.014Z,2.95
2023-09-04T06:41:15.227Z,2.60
2023-09-04T06:43:42.497Z,3.10
2023-09-04T06:46:09.723Z,3.00
2023-09-04T06:48:37.423Z,3.03
2023-09-04T06:51:04.474Z,2.30
2023-09-04T06:53:32.287Z,3.20
2023-09-04T06:55:59.336Z,2.90
2023-09-04T06:58:27.601Z,2.80
2023-09-04T07:00:54.794Z,2.40
2023-09-04T07:03:23.202Z,2.47
2023-09-04T07:05:51.035Z,2.50
2023-09-04T07:08:18.283Z,2.15
2023-09-04T07:10:45.278Z,2.40
2023-09-04T07:13:12.629Z,2.75
2023-09-04T07:15:39.635Z,2.50
2023-09-04T07:18:07.182Z,2.03
2023-09-04T07:20:34.246Z,2.60
2023-09-04T07:23:18.589Z,2.20
2023-09-04T07:25:48.110Z,2.10
2023-09-04T07:28:15.600Z,2.30
2023-09-04T07:30:42.580Z,1.90
2023-09-04T07:33:09.941Z,2.03
2023-09-04T07:35:36.921Z,2.03
2023-09-04T07:38:04.508Z,2.20
2023-09-04T07:40:31.569Z,2.33
2023-09-04T07:42:58.899Z,2.15
2023-09-04T07:45:26.365Z,2.00
2023-09-04T07:47:53.798Z,2.00
2023-09-04T07:50:20.734Z,2.05
2023-09-04T07:52:48.271Z,1.75
2023-09-04T07:55:15.303Z,2.33
2023-09-04T07:57:44.540Z,1.77
2023-09-04T08:00:13.282Z,2.10
2023-09-04T08:02:44.627Z,1.95
2023-09-04T08:05:11.914Z,2.50
2023-09-04T08:07:39.502Z,2.20
2023-09-04T08:10:06.726Z,2.20
2023-09-04T08:12:34.071Z,2.13
2023-09-04T08:15:01.145Z,1.80
2023-09-04T08:17:28.643Z,2.13
2023-09-04T08:19:55.620Z,2.22
2023-09-04T08:22:22.960Z,1.90
2023-09-04T08:24:52.130Z,2.20
2023-09-04T08:27:19.526Z,2.10
2023-09-04T08:29:46.766Z,2.03
2023-09-04T08:32:14.121Z,1.70
2023-09-04T08:34:41.593Z,1.98
2023-09-04T08:37:08.918Z,1.90
2023-09-04T08:39:35.900Z,1.98
2023-09-04T08:42:08.690Z,2.20
2023-09-04T08:44:37.600Z,2.10
2023-09-04T08:47:05.554Z,1.80
2023-09-04T08:49:32.579Z,2.00
2023-09-04T08:52:02.206Z,1.83
2023-09-04T08:54:29.706Z,1.80
2023-09-04T08:56:58.239Z,1.85
2023-09-04T08:59:25.171Z,2.10
2023-09-04T09:01:54.860Z,1.80
2023-09-04T09:04:22.903Z,1.60
2023-09-04T09:06:51.782Z,1.77
2023-09-04T09:09:21.710Z,1.80
2023-09-04T09:11:55.409Z,2.10
2023-09-04T09:14:28.307Z,2.00
2023-09-04T09:17:09.536Z,1.85
2023-09-04T09:19:37.418Z,2.00
2023-09-04T09:22:18.898Z,1.80
2023-09-04T09:25:04.900Z,1.70
2023-09-04T09:27:34.006Z,1.70
2023-09-04T09:30:01.717Z,1.88
2023-09-04T09:32:33.994Z,1.75
2023-09-04T09:35:02.538Z,1.92
2023-09-04T09:37:33.792Z,2.00
2023-09-04T09:40:00.843Z,2.03
2023-09-04T09:42:28.280Z,1.85
2023-09-04T09:44:55.443Z,1.75
2023-09-04T09:47:23.164Z,1.83
2023-09-04T09:49:50.119Z,1.90
2023-09-04T09:52:17.734Z,1.70
2023-09-04T09:54:46.649Z,2.10
2023-09-04T09:57:16.288Z,1.92
2023-09-04T09:59:45.103Z,2.10
2023-09-04T10:02:28.474Z,1.67
2023-09-04T10:04:56.395Z,1.90
2023-09-04T10:07:29.124Z,2.00
2023-09-04T10:10:04.769Z,2.03
2023-09-04T10:12:42.773Z,2.00
2023-09-04T10:15:11.920Z,1.92
2023-09-04T10:17:53.679Z,2.10
2023-09-04T10:20:23.735Z,1.90
2023-09-04T10:23:01.883Z,1.70
2023-09-04T10:25:32.763Z,1.90
2023-09-04T10:28:07.961Z,1.75
2023-09-04T10:30:37.880Z,2.00
2023-09-04T10:33:06.382Z,2.08
2023-09-04T10:35:33.847Z,2.08
2023-09-04T10:38:01.972Z,1.70
2023-09-04T10:40:32.385Z,2.10
2023-09-04T10:43:05.044Z,1.70
2023-09-04T10:45:33.535Z,1.77
2023-09-04T10:48:03.854Z,1.95
2023-09-04T10:50:41.074Z,1.70
2023-09-04T10:53:09.467Z,1.85
2023-09-04T10:55:38.711Z,2.00
2023-09-04T10:58:09.443Z,1.65
2023-09-04T11:00:38.903Z,2.00
2023-09-04T11:03:35.946Z,1.90
2023-09-04T11:06:14.116Z,1.80
2023-09-04T11:08:53.477Z,1.97
2023-09-04T11:11:27.450Z,1.50
2023-09-04T11:14:07.586Z,1.60
2023-09-04T11:16:42.038Z,1.70
2023-09-04T11:19:15.422Z,1.80
2023-09-04T11:21:44.891Z,2.00
2023-09-04T11:24:12.319Z,1.75
2023-09-04T11:26:39.743Z,2.17
2023-09-04T11:29:07.536Z,1.85
2023-09-04T11:31:36.047Z,2.10
2023-09-04T11:34:03.796Z,1.80
2023-09-04T11:36:31.298Z,1.77
2023-09-04T11:39:11.123Z,1.55
2023-09-04T11:41:38.542Z,1.80
2023-09-04T11:44:07.710Z,1.70
2023-09-04T11:46:36.222Z,1.97
2023-09-04T11:49:04.916Z,1.95
2023-09-04T11:51:33.939Z,1.83
2023-09-04T11:54:05.061Z,1.90
2023-09-04T11:56:32.080Z,1.88
2023-09-04T11:58:59.507Z,2.00
2023-09-04T12:01:26.902Z,2.00
2023-09-04T12:03:54.650Z,1.70
2023-09-04T12:06:28.492Z,1.83
2023-09-04T12:08:55.864Z,1.92
2023-09-04T12:11:23.286Z,2.00
2023-09-04T12:13:51.747Z,2.17
2023-09-04T12:16:18.724Z,2.20
2023-09-04T12:18:46.013Z,2.17
2023-09-04T12:21:13.264Z,2.10
2023-09-04T12:23:46.651Z,2.20
2023-09-04T12:26:15.377Z,2.25
2023-09-04T12:28:43.565Z,2.10
2023-09-04T12:31:14.432Z,2.05
2023-09-04T12:33:42.667Z,2.40
2023-09-04T12:36:12.691Z,2.00
2023-09-04T12:38:40.775Z,2.13
2023-09-04T12:41:08.278Z,2.00
2023-09-04T12:43:36.050Z,2.05
2023-09-04T12:46:03.567Z,2.10
2023-09-04T12:48:31.130Z,1.90
2023-09-04T12:50:58.401Z,1.90
2023-09-04T12:53:26.024Z,2.00
2023-09-04T12:55:53.273Z,2.03
2023-09-04T12:58:20.645Z,2.00
2023-09-04T13:00:47.905Z,2.00
2023-09-04T13:03:15.326Z,1.98
2023-09-04T13:05:42.593Z,2.25
2023-09-04T13:08:09.911Z,2.20
2023-09-04T13:10:37.023Z,2.42
2023-09-04T13:13:04.558Z,2.10
2023-09-04T13:15:31.776Z,1.98
2023-09-04T13:17:59.143Z,2.10
2023-09-04T13:20:26.471Z,1.90
2023-09-04T13:22:53.959Z,2.10
2023-09-04T13:25:21.083Z,1.87
2023-09-04T13:27:48.810Z,2.10
2023-09-04T13:30:15.897Z,2.20
2023-09-04T13:32:43.224Z,1.73
2023-09-04T13:35:10.893Z,1.90
2023-09-04T13:37:38.367Z,2.37
2023-09-04T13:40:06.095Z,2.05
2023-09-04T13:42:33.702Z,2.25
2023-09-04T13:45:01.407Z,2.00
2023-09-04T13:47:30.179Z,2.05
2023-09-04T13:49:57.399Z,2.20
2023-09-04T13:52:25.515Z,2.10
2023-09-04T13:54:56.575Z,2.20
2023-09-04T13:57:25.632Z,2.00
2023-09-04T13:59:53.158Z,1.83
2023-09-04T14:02:20.564Z,2.20
2023-09-04T14:04:47.850Z,2.13
2023-09-04T14:07:15.946Z,2.20
2023-09-04T14:09:42.876Z,2.30
2023-09-04T14:12:11.407Z,2.05
2023-09-04T14:14:38.624Z,2.10
2023-09-04T14:17:06.837Z,2.00
2023-09-04T14:19:34.543Z,2.05
2023-09-04T14:22:01.787Z,1.95
2023-09-04T14:24:28.775Z,2.20
2023-09-04T14:26:56.129Z,2.80
2023-09-04T14:29:23.218Z,2.30
2023-09-04T14:31:50.776Z,2.35
2023-09-04T14:34:18.563Z,2.10
2023-09-04T14:37:13.945Z,2.30
2023-09-04T14:39:33.666Z,2.40
2023-09-04T14:42:01.333Z,2.30
2023-09-04T14:44:28.305Z,2.35
2023-09-04T14:46:55.621Z,2.30
2023-09-04T14:49:22.690Z,2.20
2023-09-04T14:51:50.009Z,2.27
2023-09-04T14:54:18.237Z,2.40
2023-09-04T14:56:45.604Z,2.30
2023-09-04T14:59:12.559Z,2.30
2023-09-04T15:01:40.092Z,2.25
2023-09-04T15:04:07.713Z,2.50
2023-09-04T15:06:35.072Z,2.05
2023-09-04T15:09:02.051Z,2.67
2023-09-04T15:11:29.674Z,2.30
2023-09-04T15:13:56.889Z,2.40
2023-09-04T15:16:24.262Z,2.30
2023-09-04T15:18:51.250Z,2.40
2023-09-04T15:21:18.628Z,2.40
2023-09-04T15:23:45.683Z,2.40
2023-09-04T15:26:13.062Z,2.33
2023-09-04T15:28:40.017Z,2.70
2023-09-04T15:31:07.410Z,2.40
2023-09-04T15:33:34.427Z,2.70
2023-09-04T15:36:03.341Z,2.60
2023-09-04T15:38:34.064Z,2.53
2023-09-04T15:41:01.903Z,2.60
2023-09-04T15:43:28.953Z,2.50
2023-09-04T15:45:56.468Z,2.67
2023-09-04T15:48:23.730Z,2.40
2023-09-04T15:50:51.324Z,2.80
2023-09-04T15:53:21.052Z,2.50
2023-09-04T15:55:50.453Z,2.35
2023-09-04T15:58:18.895Z,2.70
2023-09-04T16:00:46.225Z,2.35
2023-09-04T16:03:13.203Z,2.53
2023-09-04T16:05:40.610Z,2.40
2023-09-04T16:08:07.612Z,2.60
2023-09-04T16:10:35.148Z,2.53
2023-09-04T16:13:03.677Z,2.60
2023-09-04T16:15:31.003Z,2.72
2023-09-04T16:17:58.006Z,2.70
2023-09-04T16:20:25.323Z,2.70
2023-09-04T16:22:52.801Z,2.60
2023-09-04T16:25:20.080Z,2.58
2023-09-04T16:27:47.218Z,2.30
2023-09-04T16:30:14.689Z,2.63
2023-09-04T16:32:41.737Z,2.50
2023-09-04T16:35:09.130Z,2.60
2023-09-04T16:37:37.107Z,2.78
2023-09-04T16:40:04.907Z,2.50
2023-09-04T16:42:33.200Z,2.27
2023-09-04T16:45:00.501Z,2.53
2023-09-04T16:47:27.930Z,2.30
2023-09-04T16:49:55.390Z,2.40
2023-09-04T16:52:22.392Z,2.80
2023-09-04T16:54:49.696Z,2.60
2023-09-04T16:57:17.528Z,2.83
2023-09-04T16:59:44.866Z,2.40
2023-09-04T17:02:11.898Z,2.50
2023-09-04T17:04:39.527Z,2.63
2023-09-04T17:07:07.206Z,2.80
2023-09-04T17:09:34.848Z,2.65
2023-09-04T17:12:01.856Z,2.50
2023-09-04T17:14:29.152Z,2.70
2023-09-04T17:16:56.088Z,2.63
2023-09-04T17:19:23.773Z,2.70
2023-09-04T17:21:50.933Z,2.70
2023-09-04T17:24:18.246Z,2.53
2023-09-04T17:26:45.223Z,2.30
2023-09-04T17:29:12.550Z,2.50
2023-09-04T17:31:39.598Z,2.80
2023-09-04T17:34:06.925Z,2.50
2023-09-04T17:36:33.921Z,2.60
2023-09-04T17:39:01.190Z,2.88
2023-09-04T17:41:28.220Z,2.80
2023-09-04T17:43:55.571Z,2.70
2023-09-04T17:46:22.613Z,2.75
2023-09-04T17:48:49.911Z,2.78
2023-09-04T17:51:16.885Z,2.80
2023-09-04T17:53:44.237Z,2.60
2023-09-04T17:56:11.199Z,2.60
2023-09-04T17:58:38.665Z,2.70
2023-09-04T18:01:05.777Z,2.90
2023-09-04T18:03:33.570Z,2.53
2023-09-04T18:06:00.687Z,2.90
2023-09-04T18:08:28.244Z,2.53
2023-09-04T18:11:02.201Z,2.80
2023-09-04T18:13:29.581Z,2.70
2023-09-04T18:15:56.795Z,2.60
2023-09-04T18:18:24.677Z,2.70
2023-09-04T18:20:51.748Z,2.90
2023-09-04T18:23:19.665Z,2.58
2023-09-04T18:25:46.710Z,2.80
2023-09-04T18:28:16.191Z,3.00
2023-09-04T18:30:43.428Z,3.00
2023-09-04T18:33:10.900Z,3.07
2023-09-04T18:35:38.251Z,2.85
2023-09-04T18:38:05.522Z,2.65
2023-09-04T18:40:34.678Z,3.00
2023-09-04T18:43:01.915Z,3.00
2023-09-04T18:45:28.933Z,2.97
2023-09-04T18:47:56.249Z,3.08
2023-09-04T18:50:23.219Z,2.92
2023-09-04T18:52:50.697Z,3.47
2023-09-04T18:55:17.862Z,3.10
2023-09-04T18:57:45.166Z,2.70
2023-09-04T19:00:13.657Z,2.72
2023-09-04T19:02:41.142Z,2.78
2023-09-04T19:05:08.714Z,2.60
2023-09-04T19:07:35.995Z,2.50
2023-09-04T19:10:03.165Z,2.80
2023-09-04T19:12:30.518Z,2.83
2023-09-04T19:14:57.551Z,2.80
2023-09-04T19:17:24.916Z,2.85
2023-09-04T19:19:52.079Z,3.55
2023-09-04T19:22:19.422Z,2.50
2023-09-04T19:24:47.674Z,2.60
2023-09-04T19:27:14.986Z,3.13
2023-09-04T19:29:41.966Z,3.22
2023-09-04T19:32:09.433Z,2.78
2023-09-04T19:34:36.510Z,3.20
2023-09-04T19:37:04.161Z,3.10
2023-09-04T19:39:34.983Z,3.10
2023-09-04T19:42:02.284Z,3.10
2023-09-04T19:44:30.342Z,3.10
2023-09-04T19:46:57.636Z,3.20
2023-09-04T19:49:24.629Z,2.90
2023-09-04T19:51:52.129Z,3.35
2023-09-04T19:54:19.112Z,3.35
2023-09-04T19:56:47.131Z,3.30
2023-09-04T19:59:14.130Z,3.37
2023-09-04T20:01:41.472Z,3.00
2023-09-04T20:04:09.884Z,3.00
2023-09-04T20:06:37.207Z,3.35
2023-09-04T20:09:04.372Z,3.10
2023-09-04T20:11:34.525Z,3.30
2023-09-04T20:14:02.439Z,3.60
2023-09-04T20:16:33.032Z,3.40
2023-09-04T20:19:00.890Z,3.10
2023-09-04T20:21:28.447Z,3.58
2023-09-04T20:23:57.133Z,3.53
2023-09-04T20:26:35.246Z,3.47
2023-09-04T20:29:10.474Z,3.63
2023-09-04T20:31:38.588Z,3.55
2023-09-04T20:34:05.547Z,3.80
2023-09-04T20:36:33.002Z,4.00
2023-09-04T20:38:59.938Z,3.60
2023-09-04T20:41:27.217Z,3.72
2023-09-04T20:43:54.588Z,4.03
2023-09-04T20:46:23.951Z,3.90
2023-09-04T20:48:53.542Z,3.90
2023-09-04T20:51:21.042Z,3.80
2023-09-04T20:53:47.982Z,3.15
2023-09-04T20:56:15.293Z,3.92
2023-09-04T20:58:42.289Z,3.42
2023-09-04T21:01:09.566Z,3.80
2023-09-04T21:03:37.463Z,3.83
2023-09-04T21:06:05.667Z,3.83
2023-09-04T21:08:32.640Z,3.63
2023-09-04T21:11:05.895Z,3.70
2023-09-04T21:13:51.443Z,3.43
2023-09-04T21:16:37.511Z,3.45
2023-09-04T21:19:23.196Z,3.88
2023-09-04T21:22:09.166Z,3.42
2023-09-04T21:24:55.399Z,3.80
2023-09-04T21:27:41.331Z,3.93
2023-09-04T21:30:27.570Z,3.63
2023-09-04T21:33:13.826Z,3.83
2023-09-04T21:35:59.479Z,3.97
2023-09-04T21:38:45.657Z,3.88
2023-09-04T21:41:31.345Z,3.67
2023-09-04T21:44:17.254Z,3.53
2023-09-04T21:47:02.933Z,3.67
2023-09-04T21:49:48.808Z,3.45
2023-09-04T21:52:34.579Z,3.90
2023-09-04T21:55:20.515Z,3.57
2023-09-04T21:58:08.423Z,3.30
2023-09-04T22:00:54.430Z,3.67
2023-09-04T22:03:40.215Z,3.80
2023-09-04T22:06:26.165Z,3.35
2023-09-04T22:09:11.860Z,3.63
2023-09-04T22:11:57.743Z,3.70
2023-09-04T22:14:43.344Z,3.40
2023-09-04T22:17:29.688Z,4.00
2023-09-04T22:20:15.139Z,3.70
2023-09-04T22:23:01.262Z,3.40
2023-09-04T22:25:47.058Z,3.95
2023-09-04T22:28:33.142Z,3.75
2023-09-04T22:31:18.950Z,4.05
2023-09-04T22:34:05.160Z,3.30
2023-09-04T22:36:50.498Z,3.80
2023-09-04T22:39:36.390Z,3.70
2023-09-04T22:42:22.088Z,4.00
2023-09-04T22:45:08.076Z,3.70
2023-09-04T22:47:53.794Z,3.88
2023-09-04T22:50:39.916Z,3.97
2023-09-04T22:53:25.535Z,3.72
2023-09-04T22:56:12.021Z,4.05
2023-09-04T22:58:57.423Z,4.43
2023-09-04T23:01:43.462Z,3.83
2023-09-04T23:04:29.028Z,3.47
2023-09-04T23:07:15.148Z,4.03
2023-09-04T23:21:22.711Z,4.10
2023-09-04T23:23:51.726Z,4.22
2023-09-04T23:26:21.512Z,3.85
2023-09-04T23:28:50.206Z,4.47
2023-09-04T23:31:20.311Z,3.80
2023-09-04T23:33:48.690Z,4.10
2023-09-04T23:36:26.099Z,4.53
2023-09-04T23:39:12.140Z,4.82
2023-09-04T23:41:57.953Z,4.15
2023-09-04T23:44:43.762Z,4.50
2023-09-04T23:47:11.593Z,4.10
2023-09-04T23:49:38.996Z,4.30
2023-09-04T23:52:07.544Z,4.15
2023-09-04T23:54:34.906Z,4.10
2023-09-04T23:57:02.437Z,4.25
